Walnut Grove, CA (95690)

5:25 AM PDT on March 24, 2017 (GMT -0700)
KayDix | | Change Station
Active Advisory: Wind Advisory

Elev 3 ft 38.23 °N, 121.53 °W | Updated 10 minutes ago

Rain
Rain
51.4 °F
Feels Like 51.4 °F
N
0.0
Wind Variable Wind from ESE
Gusts 0.0 mph

Today
High -- | Low -- °F
--% Chance of Precip.
Yesterday
High -- | Low -- °F
Precip. -- in
Pressure 30.19 in
Visibility 10.0 miles
Clouds Overcast 8500 ft
Dew Point 48 °F
Humidity 89%
Rainfall 0.00 in
Snow Depth Not available.
7:02 AM 7:22 PM
Waning Crescent, 15% visible
METAR KSAC 241153Z AUTO 00000KT 10SM OVC085 12/08 A3019 RMK AO2 SLP223 T01170083 10117 20111 58007 $
Pressure 30.19 in
Visibility 10.0 miles
Clouds Overcast 8500 ft
Dew Point 48 °F
Humidity 89%
Rainfall 0.00 in
Snow Depth Not available.
7:02 AM 7:22 PM
Waning Crescent, 15% visible
METAR KSAC 241153Z AUTO 00000KT 10SM OVC085 12/08 A3019 RMK AO2 SLP223 T01170083 10117 20111 58007 $

Get Your Daily Forecast Email!

Thanks for signing up!

Be on the lookout for a verification email in your inbox.

You'll start receiving severe weather alerts in your inbox..

×

10-Day Weather Forecast

Almanac

Astronomy

Mar. 24, 2017 Rise Set
Actual Time
Civil Twilight
Nautical Twilight
Astronomical Twilight
Moon
Length of Visible Light
Length of Day
Tomorrow will be .
, % of the Moon is Illuminated

Today's Extremes

State Highs State Lows

Community

WunderPhotos

Upload Photos

1,962,540 photos uploaded!

WunderBlog® & News

Nearby

Air Quality

  Air Quality AQ Index Pollutant
Not available.

Snow Depth

Station Depth Elevation

Earthquake Activity

City Distance Mag. Time & Date
Minimum magnitude displayed is 2.5.

Earthquake Activity

City Distance Mag. Time & Date
Minimum magnitude displayed is 2.5.

Coastal Water Temperatures

Place Temperature

Stations

Nearby Weather Stations

Station Location Temp. Windchill Dew Point Humidity Wind Precip. Elev Updated Type
                   

Watches & Warnings

Wind Advisory
Issued: 4:19 AM PDT Mar. 24, 2017 – National Weather Service

... Wind Advisory remains in effect from 9 am this morning to 7 PM
PDT this evening...

* timing... winds will increase this morning and continue through
this afternoon before declining this evening and overnight.

* Winds... south winds 20 to 30 mph with gusts up to 40 mph.

* Impacts... local downed trees and limbs, blowing debris, and
local power outages possible.

Precautionary/preparedness actions...

A Wind Advisory means that winds of 35 mph or higher are
expected. Winds this strong can make driving difficult, especially
for high profile vehicles. Use extra caution.


Interact with US via social media
www.Facebook.Com/NWS.Sacramento
www.Twitter.Com/nwssacramento